createdAt,value
2023-04-12T00:00:57.598Z,65.56
2023-04-12T00:03:25.438Z,66.26
2023-04-12T00:05:55.587Z,66.65
2023-04-12T00:08:33.038Z,67.00
2023-04-12T00:11:00.780Z,68.39
2023-04-12T00:13:27.541Z,68.86
2023-04-12T00:15:54.020Z,69.13
2023-04-12T00:18:21.690Z,69.24
2023-04-12T00:20:48.073Z,69.35
2023-04-12T00:23:15.343Z,70.75
2023-04-12T00:25:41.789Z,70.73
2023-04-12T00:28:08.223Z,71.36
2023-04-12T00:30:34.694Z,72.39
2023-04-12T00:33:01.246Z,73.13
2023-04-12T00:35:27.732Z,72.86
2023-04-12T00:37:54.849Z,73.40
2023-04-12T00:40:21.331Z,73.78
2023-04-12T00:42:47.903Z,74.33
2023-04-12T00:45:14.376Z,74.07
2023-04-12T00:47:42.896Z,74.11
2023-04-12T00:50:10.750Z,73.59
2023-04-12T00:52:39.196Z,73.88
2023-04-12T00:55:09.861Z,73.24
2023-04-12T00:57:38.867Z,73.11
2023-04-12T01:00:12.884Z,73.25
2023-04-12T01:02:47.818Z,73.97
2023-04-12T01:05:22.097Z,74.19
2023-04-12T01:08:06.189Z,74.03
2023-04-12T01:10:41.907Z,73.59
2023-04-12T01:13:28.881Z,73.85
2023-04-12T01:16:20.753Z,73.80
2023-04-12T01:18:51.224Z,73.73
2023-04-12T01:21:45.832Z,73.79
2023-04-12T01:24:29.550Z,73.74
2023-04-12T01:27:00.747Z,74.40
2023-04-12T01:29:30.131Z,74.58
2023-04-12T01:32:04.812Z,74.28
2023-04-12T01:34:33.466Z,74.79
2023-04-12T01:37:02.392Z,74.58
2023-04-12T01:39:33.660Z,74.82
2023-04-12T01:42:01.474Z,74.62
2023-04-12T01:44:28.291Z,74.61
2023-04-12T01:46:55.261Z,75.28
2023-04-12T01:49:32.684Z,75.72
2023-04-12T01:52:09.592Z,74.67
2023-04-12T01:54:39.270Z,74.40
2023-04-12T01:57:08.453Z,75.08
2023-04-12T01:59:40.066Z,74.55
2023-04-12T02:02:08.313Z,75.66
2023-04-12T02:04:36.262Z,76.11
2023-04-12T02:07:03.570Z,77.04
2023-04-12T02:09:30.624Z,76.06
2023-04-12T02:11:57.165Z,76.34
2023-04-12T02:14:23.584Z,75.45
2023-04-12T02:16:50.836Z,76.77
2023-04-12T02:19:17.344Z,77.13
2023-04-12T02:21:45.531Z,75.27
2023-04-12T02:24:12.852Z,76.40
2023-04-12T02:26:39.934Z,76.20
2023-04-12T02:29:10.175Z,76.35
2023-04-12T02:31:38.873Z,77.01
2023-04-12T02:34:08.794Z,77.03
2023-04-12T02:36:37.788Z,76.67
2023-04-12T02:39:05.110Z,76.84
2023-04-12T02:41:34.170Z,77.35
2023-04-12T02:44:00.616Z,77.35
2023-04-12T02:46:27.644Z,77.30
2023-04-12T02:48:57.745Z,77.64
2023-04-12T02:51:32.379Z,77.54
2023-04-12T02:53:59.990Z,77.79
2023-04-12T02:56:31.418Z,77.67
2023-04-12T02:59:06.877Z,78.02
2023-04-12T03:01:56.173Z,78.24
2023-04-12T03:04:30.514Z,78.03
2023-04-12T03:06:59.554Z,77.81
2023-04-12T03:09:34.938Z,78.87
2023-04-12T03:12:02.701Z,80.19
2023-04-12T03:14:33.460Z,80.02
2023-04-12T03:17:00.086Z,79.53
2023-04-12T03:19:28.883Z,79.65
2023-04-12T03:21:55.377Z,79.66
2023-04-12T03:24:22.299Z,81.28
2023-04-12T03:26:50.193Z,81.07
2023-04-12T03:29:22.170Z,81.16
2023-04-12T03:31:50.473Z,80.58
2023-04-12T03:34:17.779Z,80.61
2023-04-12T03:36:48.970Z,81.07
2023-04-12T03:39:24.364Z,81.84
2023-04-12T03:41:53.188Z,82.53
2023-04-12T03:44:22.716Z,81.49
2023-04-12T03:46:49.484Z,82.03
2023-04-12T03:49:17.331Z,83.01
2023-04-12T03:51:46.105Z,82.03
2023-04-12T03:54:13.172Z,82.39
2023-04-12T03:56:56.582Z,82.45
2023-04-12T03:59:32.663Z,81.91
2023-04-12T04:02:01.257Z,82.69
2023-04-12T04:04:30.032Z,82.10
2023-04-12T04:07:01.163Z,82.73
2023-04-12T04:09:30.366Z,82.85
2023-04-12T04:11:56.836Z,82.57
2023-04-12T04:14:24.495Z,82.59
2023-04-12T04:16:51.371Z,83.66
2023-04-12T04:19:19.780Z,83.49
2023-04-12T04:21:47.483Z,84.28
2023-04-12T04:24:14.227Z,83.99
2023-04-12T04:26:45.940Z,84.59
2023-04-12T04:29:21.968Z,85.32
2023-04-12T04:31:48.713Z,85.28
2023-04-12T04:34:16.334Z,84.68
2023-04-12T04:36:46.805Z,85.23
2023-04-12T04:39:20.875Z,85.55
2023-04-12T04:41:54.353Z,84.42
2023-04-12T04:44:29.286Z,84.48
2023-04-12T04:46:59.082Z,84.88
2023-04-12T04:49:25.562Z,84.21
2023-04-12T04:51:53.139Z,86.00
2023-04-12T04:54:22.342Z,86.75
2023-04-12T04:56:48.761Z,86.29
2023-04-12T04:59:17.859Z,86.26
2023-04-12T05:01:44.458Z,86.63
2023-04-12T05:04:11.121Z,86.12
2023-04-12T05:06:37.596Z,86.10
2023-04-12T05:09:06.215Z,87.16
2023-04-12T05:11:38.042Z,87.56
2023-04-12T05:14:12.031Z,88.00
2023-04-12T05:16:39.200Z,88.18
2023-04-12T05:19:06.983Z,88.09
2023-04-12T05:21:34.317Z,88.18
2023-04-12T05:24:01.364Z,87.71
2023-04-12T05:26:28.858Z,87.63
2023-04-12T05:28:57.327Z,87.35
2023-04-12T05:31:24.718Z,88.35
2023-04-12T05:33:53.776Z,89.72
2023-04-12T05:36:40.166Z,89.54
2023-04-12T05:39:07.457Z,89.21
2023-04-12T05:41:35.682Z,89.00
2023-04-12T05:44:03.626Z,88.53
2023-04-12T05:46:30.186Z,88.87
2023-04-12T05:48:57.820Z,89.07
2023-04-12T05:51:37.740Z,89.40
2023-04-12T05:54:07.909Z,90.21
2023-04-12T05:56:35.893Z,89.58
2023-04-12T05:59:04.621Z,89.57
2023-04-12T06:01:33.060Z,89.94
2023-04-12T06:04:04.123Z,88.89
2023-04-12T06:06:31.440Z,88.33
2023-04-12T06:09:00.632Z,87.26
2023-04-12T06:11:28.662Z,86.70
2023-04-12T06:13:55.629Z,86.56
2023-04-12T06:16:22.935Z,87.19
2023-04-12T06:18:49.536Z,86.32
2023-04-12T06:21:16.087Z,87.25
2023-04-12T06:23:42.619Z,86.47
2023-04-12T06:26:09.244Z,86.93
2023-04-12T06:28:37.188Z,87.03
2023-04-12T06:31:04.143Z,86.97
2023-04-12T06:33:36.774Z,88.19
2023-04-12T06:36:07.146Z,87.69
2023-04-12T06:38:33.883Z,86.56
2023-04-12T06:41:00.601Z,87.13
2023-04-12T06:43:27.112Z,86.35
2023-04-12T06:45:53.595Z,87.73
2023-04-12T06:48:20.171Z,86.99
2023-04-12T06:50:46.626Z,86.04
2023-04-12T06:53:16.149Z,85.95
2023-04-12T06:55:42.537Z,85.67
2023-04-12T06:58:09.189Z,85.49
2023-04-12T07:00:35.856Z,84.85
2023-04-12T07:03:02.695Z,84.66
2023-04-12T07:05:29.250Z,84.70
2023-04-12T07:07:56.012Z,83.90
2023-04-12T07:10:22.507Z,83.94
2023-04-12T07:12:49.648Z,83.64
2023-04-12T07:15:16.117Z,86.06
2023-04-12T07:17:42.743Z,87.68
2023-04-12T07:20:09.818Z,86.10
2023-04-12T07:22:36.418Z,85.91
2023-04-12T07:25:05.066Z,85.44
2023-04-12T07:27:31.750Z,85.91
2023-04-12T07:29:58.732Z,86.24
2023-04-12T07:32:25.964Z,87.27
2023-04-12T07:34:53.039Z,86.68
2023-04-12T07:37:20.451Z,85.67
2023-04-12T07:39:46.980Z,85.60
2023-04-12T07:42:13.484Z,85.34
2023-04-12T07:44:39.900Z,86.89
2023-04-12T07:47:07.162Z,86.41
2023-04-12T07:49:33.584Z,85.84
2023-04-12T07:52:00.054Z,85.76
2023-04-12T07:54:27.862Z,86.24
2023-04-12T07:56:59.325Z,86.49
2023-04-12T07:59:25.812Z,86.61
2023-04-12T08:01:52.551Z,86.72
2023-04-12T08:04:19.110Z,86.83
2023-04-12T08:06:45.824Z,86.35
2023-04-12T08:09:12.491Z,87.36
2023-04-12T08:11:38.937Z,86.78
2023-04-12T08:14:05.557Z,87.43
2023-04-12T08:16:32.589Z,87.18
2023-04-12T08:18:59.045Z,86.50
2023-04-12T08:21:26.007Z,86.18
2023-04-12T08:23:52.382Z,85.59
2023-04-12T08:26:18.892Z,86.49
2023-04-12T08:28:45.375Z,87.39
2023-04-12T08:31:13.191Z,87.15
2023-04-12T08:33:39.615Z,87.07
2023-04-12T08:36:06.778Z,86.92
2023-04-12T08:41:07.438Z,87.31
2023-04-12T08:43:34.902Z,86.73
2023-04-12T08:46:01.703Z,86.77
2023-04-12T08:48:28.559Z,87.06
2023-04-12T08:50:57.701Z,87.62
2023-04-12T08:53:24.221Z,87.64
2023-04-12T08:55:50.820Z,87.80
2023-04-12T08:58:17.239Z,86.55
2023-04-12T09:00:45.073Z,87.18
2023-04-12T09:03:11.734Z,87.48
2023-04-12T09:05:38.550Z,87.63
2023-04-12T09:08:05.273Z,87.02
2023-04-12T09:10:37.183Z,86.78
2023-04-12T09:13:07.248Z,86.55
2023-04-12T09:15:34.993Z,86.90
2023-04-12T09:18:07.348Z,88.15
2023-04-12T09:20:34.507Z,88.51
2023-04-12T09:23:02.738Z,87.83
2023-04-12T09:25:40.565Z,88.22
2023-04-12T09:28:26.629Z,87.90
2023-04-12T09:30:58.047Z,87.96
2023-04-12T09:33:34.629Z,88.35
2023-04-12T09:36:02.921Z,87.87
2023-04-12T09:38:33.429Z,88.08
2023-04-12T09:41:22.328Z,87.64
2023-04-12T09:43:50.044Z,87.43
2023-04-12T09:46:16.702Z,87.76
2023-04-12T09:48:51.531Z,88.12
2023-04-12T09:51:34.130Z,88.48
2023-04-12T09:54:05.570Z,88.64
2023-04-12T09:56:35.689Z,89.02
2023-04-12T09:59:04.303Z,88.60
2023-04-12T10:01:36.756Z,87.15
2023-04-12T10:04:05.122Z,88.18
2023-04-12T10:06:33.253Z,88.71
2023-04-12T10:09:04.177Z,88.47
2023-04-12T10:11:32.076Z,88.34
2023-04-12T10:13:59.012Z,87.59
2023-04-12T10:16:27.149Z,88.17
2023-04-12T10:18:55.371Z,88.57
2023-04-12T10:21:22.358Z,87.59
2023-04-12T10:23:48.900Z,87.03
2023-04-12T10:26:16.724Z,87.20
2023-04-12T10:28:46.969Z,87.33
2023-04-12T10:31:32.847Z,87.67
2023-04-12T10:34:02.672Z,87.56
2023-04-12T10:36:54.718Z,86.84
2023-04-12T10:39:38.960Z,86.92
2023-04-12T10:42:18.561Z,87.10
2023-04-12T10:44:45.574Z,86.81
2023-04-12T10:47:12.257Z,86.35
2023-04-12T10:49:39.490Z,86.47
2023-04-12T10:52:08.989Z,86.81
2023-04-12T10:54:36.698Z,86.58
2023-04-12T10:57:05.125Z,86.84
2023-04-12T11:00:05.400Z,86.46
2023-04-12T11:02:34.453Z,87.48
2023-04-12T11:05:08.639Z,87.37
2023-04-12T11:07:54.475Z,87.35
2023-04-12T11:10:40.141Z,86.43
2023-04-12T11:13:09.495Z,85.54
2023-04-12T11:15:39.627Z,85.88
2023-04-12T11:18:11.703Z,85.54
2023-04-12T11:20:40.483Z,86.61
2023-04-12T11:23:10.581Z,85.90
2023-04-12T11:25:37.827Z,84.94
2023-04-12T11:28:11.078Z,85.53
2023-04-12T11:30:54.296Z,83.35
2023-04-12T11:33:32.080Z,82.68
2023-04-12T11:35:58.667Z,80.96
2023-04-12T11:38:25.163Z,81.95
2023-04-12T11:40:51.641Z,82.59
2023-04-12T11:43:21.452Z,81.92
2023-04-12T11:45:48.171Z,80.66
2023-04-12T11:48:15.862Z,81.20
2023-04-12T11:50:42.282Z,80.63
2023-04-12T11:53:17.822Z,81.12
2023-04-12T11:55:51.676Z,79.62
2023-04-12T11:58:23.016Z,77.33
2023-04-12T12:00:50.499Z,77.50
2023-04-12T12:03:19.042Z,77.78
2023-04-12T12:05:46.641Z,77.99
2023-04-12T12:08:13.635Z,77.43
2023-04-12T12:10:55.585Z,76.73
2023-04-12T12:13:27.270Z,75.85
2023-04-12T12:15:53.788Z,75.30
2023-04-12T12:18:26.345Z,77.17
2023-04-12T12:20:52.794Z,76.38
2023-04-12T12:23:32.284Z,76.34
2023-04-12T12:26:10.508Z,77.25
2023-04-12T12:28:44.764Z,77.59
2023-04-12T12:31:12.356Z,77.31
2023-04-12T12:33:46.470Z,76.74
2023-04-12T12:36:16.403Z,76.79
2023-04-12T12:38:43.091Z,77.51
2023-04-12T12:41:20.843Z,76.31
2023-04-12T12:43:52.386Z,76.38
2023-04-12T12:46:20.099Z,77.62
2023-04-12T12:48:48.093Z,78.01
2023-04-12T12:51:20.035Z,79.84
2023-04-12T12:53:47.153Z,78.42
2023-04-12T12:56:14.746Z,80.23
2023-04-12T12:58:42.084Z,81.46
2023-04-12T13:01:08.850Z,80.90
2023-04-12T13:03:35.633Z,80.38
2023-04-12T13:06:02.215Z,80.42
2023-04-12T13:08:34.286Z,79.99
2023-04-12T13:11:00.954Z,80.44
2023-04-12T13:13:27.464Z,80.58
2023-04-12T13:15:53.975Z,79.40
2023-04-12T13:18:20.424Z,79.17
2023-04-12T13:20:46.928Z,78.54
2023-04-12T13:23:14.654Z,78.25
2023-04-12T13:25:41.074Z,76.74
2023-04-12T13:28:07.501Z,77.27
2023-04-12T13:30:34.092Z,76.58
2023-04-12T13:33:00.601Z,77.07
2023-04-12T13:35:27.338Z,76.79
2023-04-12T13:37:53.742Z,76.76
2023-04-12T13:40:20.351Z,76.23
2023-04-12T13:42:46.805Z,77.26
2023-04-12T13:45:13.388Z,77.32
2023-04-12T13:47:39.933Z,78.19
2023-04-12T13:50:07.084Z,78.77
2023-04-12T13:52:33.543Z,78.80
2023-04-12T13:55:00.109Z,79.36
2023-04-12T13:57:26.525Z,79.27
2023-04-12T13:59:53.058Z,79.63
2023-04-12T14:02:19.596Z,79.69
2023-04-12T14:04:54.107Z,79.89
2023-04-12T14:07:21.188Z,78.57
2023-04-12T14:09:48.601Z,78.19
2023-04-12T14:12:15.423Z,77.82
2023-04-12T14:14:42.203Z,77.71
2023-04-12T14:17:08.640Z,77.57
2023-04-12T14:19:35.364Z,78.13
2023-04-12T14:22:02.405Z,78.77
2023-04-12T14:24:29.119Z,78.14
2023-04-12T14:26:57.097Z,76.92
2023-04-12T14:29:23.611Z,77.91
2023-04-12T14:31:50.002Z,77.93
2023-04-12T14:34:16.463Z,78.33
2023-04-12T14:36:42.946Z,77.51
2023-04-12T14:39:11.283Z,78.43
2023-04-12T14:41:40.128Z,77.62
2023-04-12T14:44:06.700Z,77.50
2023-04-12T14:46:33.122Z,77.68
2023-04-12T14:49:01.310Z,78.65
2023-04-12T14:51:29.179Z,77.60
2023-04-12T14:53:56.071Z,77.48
2023-04-12T14:56:28.359Z,77.98
2023-04-12T14:58:56.712Z,77.55
2023-04-12T15:01:23.995Z,77.93
2023-04-12T15:03:54.169Z,78.91
2023-04-12T15:06:22.968Z,79.87
2023-04-12T15:08:55.033Z,79.17
2023-04-12T15:11:29.882Z,79.06
2023-04-12T15:13:57.033Z,77.59
2023-04-12T15:16:23.632Z,76.52
2023-04-12T15:18:51.214Z,74.25
2023-04-12T15:21:18.002Z,75.72
2023-04-12T15:23:44.887Z,74.92
2023-04-12T15:26:12.034Z,75.47
2023-04-12T15:28:38.668Z,74.47
2023-04-12T15:31:05.956Z,73.30
2023-04-12T15:33:34.779Z,72.54
2023-04-12T15:36:02.389Z,72.08
2023-04-12T15:38:29.871Z,71.93
2023-04-12T15:40:59.257Z,71.78
2023-04-12T15:43:26.426Z,70.41
2023-04-12T15:45:54.591Z,70.18
2023-04-12T15:48:23.019Z,67.79
2023-04-12T15:50:51.092Z,66.79
2023-04-12T15:53:20.796Z,66.69
2023-04-12T15:55:47.618Z,67.24
2023-04-12T15:58:14.704Z,64.66
2023-04-12T16:00:41.249Z,63.87
2023-04-12T16:03:08.216Z,64.25
2023-04-12T16:05:34.842Z,64.74
2023-04-12T16:08:01.536Z,63.46
2023-04-12T16:10:28.044Z,64.07
2023-04-12T16:12:56.551Z,64.12
2023-04-12T16:15:23.389Z,63.79
2023-04-12T16:17:54.362Z,64.68
2023-04-12T16:20:22.205Z,63.89
2023-04-12T16:22:54.311Z,63.87
2023-04-12T16:25:25.034Z,63.68
2023-04-12T16:27:51.845Z,63.63
2023-04-12T16:30:18.415Z,63.92
2023-04-12T16:32:46.756Z,63.26
2023-04-12T16:35:15.001Z,63.09
2023-04-12T16:37:42.803Z,63.40
2023-04-12T16:40:12.360Z,62.92
2023-04-12T16:42:43.417Z,63.03
2023-04-12T16:45:11.927Z,62.79
2023-04-12T16:47:39.637Z,62.87
2023-04-12T16:50:08.935Z,62.95
2023-04-12T16:52:36.751Z,62.82
2023-04-12T16:55:04.025Z,62.13
2023-04-12T16:57:30.794Z,61.27
2023-04-12T16:59:57.418Z,61.83
2023-04-12T17:02:24.806Z,61.52
2023-04-12T17:04:51.534Z,61.97
2023-04-12T17:07:18.839Z,61.11
2023-04-12T17:09:45.427Z,60.72
2023-04-12T17:12:12.429Z,60.84
2023-04-12T17:14:39.021Z,61.26
2023-04-12T17:17:06.692Z,61.14
2023-04-12T17:19:33.669Z,60.98
2023-04-12T17:22:00.285Z,61.78
2023-04-12T17:24:26.847Z,61.19
2023-04-12T17:26:53.715Z,61.15
2023-04-12T17:29:20.378Z,60.55
2023-04-12T17:31:49.749Z,60.68
2023-04-12T17:34:18.429Z,60.87
2023-04-12T17:36:45.197Z,60.84
2023-04-12T17:39:11.623Z,60.81
2023-04-12T17:41:38.239Z,60.44
2023-04-12T17:44:05.653Z,60.94
2023-04-12T17:46:33.052Z,61.03
2023-04-12T17:49:02.585Z,61.13
2023-04-12T17:51:29.192Z,61.48
2023-04-12T17:53:58.195Z,61.41
2023-04-12T17:56:25.859Z,61.29
2023-04-12T17:58:52.291Z,61.75
2023-04-12T18:01:18.754Z,61.86
2023-04-12T18:03:45.400Z,61.88
2023-04-12T18:06:13.748Z,61.80
2023-04-12T18:08:40.211Z,61.94
2023-04-12T18:11:07.802Z,62.07
2023-04-12T18:13:34.355Z,61.98
2023-04-12T18:16:01.486Z,62.46
2023-04-12T18:18:28.015Z,62.39
2023-04-12T18:20:54.460Z,62.81
2023-04-12T18:23:21.394Z,63.16
2023-04-12T18:25:48.002Z,63.54
2023-04-12T18:28:15.081Z,63.75
2023-04-12T18:30:41.490Z,65.82
2023-04-12T18:33:08.243Z,65.95
2023-04-12T18:35:34.868Z,71.83
2023-04-12T18:38:01.337Z,69.21
2023-04-12T18:40:28.546Z,67.90
2023-04-12T18:42:55.241Z,68.29
2023-04-12T18:45:22.658Z,68.75
2023-04-12T18:47:51.155Z,68.73
2023-04-12T18:50:19.242Z,69.32
2023-04-12T18:52:46.054Z,70.45
2023-04-12T18:55:12.504Z,70.80
2023-04-12T18:57:39.265Z,71.14
2023-04-12T19:00:13.434Z,70.85
2023-04-12T19:02:40.982Z,71.30
2023-04-12T19:05:10.211Z,71.41
2023-04-12T19:07:37.174Z,71.71
2023-04-12T19:10:04.323Z,72.54
2023-04-12T19:12:31.653Z,72.42
2023-04-12T19:14:58.291Z,72.12
2023-04-12T19:17:27.529Z,72.77
2023-04-12T19:19:54.762Z,73.20
2023-04-12T19:22:21.738Z,73.30
2023-04-12T19:24:49.881Z,73.62
2023-04-12T19:27:16.809Z,74.06
2023-04-12T19:29:43.985Z,74.13
2023-04-12T19:32:13.784Z,74.28
2023-04-12T19:34:41.586Z,75.01
2023-04-12T19:37:08.485Z,74.69
2023-04-12T19:39:36.083Z,74.90
2023-04-12T19:42:03.464Z,75.29
2023-04-12T19:44:30.437Z,74.80
2023-04-12T19:46:56.889Z,74.79
2023-04-12T19:49:23.838Z,74.72
2023-04-12T19:51:50.876Z,75.04
2023-04-12T19:54:18.866Z,75.29
2023-04-12T19:56:49.667Z,74.46
2023-04-12T19:59:17.740Z,74.57
2023-04-12T20:01:50.615Z,75.73
2023-04-12T20:04:21.480Z,75.80
2023-04-12T20:06:51.826Z,75.34
2023-04-12T20:09:18.606Z,74.60
2023-04-12T20:11:45.386Z,74.80
2023-04-12T20:14:11.827Z,74.46
2023-04-12T20:16:42.656Z,74.50
2023-04-12T20:19:10.046Z,74.22
2023-04-12T20:21:36.614Z,74.34
2023-04-12T20:24:05.095Z,73.71
2023-04-12T20:26:31.600Z,73.25
2023-04-12T20:28:59.846Z,72.50
2023-04-12T20:31:27.265Z,73.23
2023-04-12T20:33:55.032Z,74.14
2023-04-12T20:36:22.637Z,73.66
2023-04-12T20:38:53.073Z,72.64
2023-04-12T20:41:20.168Z,72.01
2023-04-12T20:43:47.935Z,72.72
2023-04-12T20:46:17.469Z,72.26
2023-04-12T20:48:46.274Z,72.24
2023-04-12T20:51:16.295Z,72.22
2023-04-12T20:53:49.117Z,72.72
2023-04-12T20:56:16.885Z,73.47
2023-04-12T20:58:44.278Z,73.57
2023-04-12T21:01:14.841Z,73.56
2023-04-12T21:03:42.671Z,72.56
2023-04-12T21:06:10.584Z,71.39
2023-04-12T21:08:37.970Z,72.13
2023-04-12T21:11:04.593Z,71.21
2023-04-12T21:13:31.083Z,71.30
2023-04-12T21:15:58.735Z,70.72
2023-04-12T21:18:25.316Z,71.11
2023-04-12T21:20:51.868Z,70.62
2023-04-12T21:23:18.459Z,71.09
2023-04-12T21:25:50.784Z,70.83
2023-04-12T21:28:18.064Z,71.12
2023-04-12T21:30:46.024Z,70.09
2023-04-12T21:33:12.701Z,69.94
2023-04-12T21:35:40.137Z,70.68
2023-04-12T21:38:06.569Z,71.43
2023-04-12T21:40:33.038Z,70.88
2023-04-12T21:42:59.485Z,71.04
2023-04-12T21:45:27.260Z,70.11
2023-04-12T21:47:53.818Z,70.04
2023-04-12T21:50:20.466Z,69.95
2023-04-12T21:52:47.761Z,70.07
2023-04-12T21:55:14.236Z,70.54
2023-04-12T21:57:40.780Z,69.83
2023-04-12T22:00:09.791Z,69.12
2023-04-12T22:02:39.154Z,69.43
2023-04-12T22:05:06.758Z,69.29
2023-04-12T22:07:33.601Z,69.67
2023-04-12T22:10:01.658Z,68.70
2023-04-12T22:12:28.197Z,68.61
2023-04-12T22:14:57.514Z,68.25
2023-04-12T22:17:24.079Z,68.53
2023-04-12T22:19:51.568Z,69.03
2023-04-12T22:22:18.154Z,69.17
2023-04-12T22:24:44.634Z,69.11
2023-04-12T22:27:11.152Z,68.79
2023-04-12T22:29:37.915Z,68.41
2023-04-12T22:32:04.660Z,68.41
2023-04-12T22:34:32.289Z,67.54
2023-04-12T22:36:58.866Z,68.16
2023-04-12T22:39:26.497Z,68.56
2023-04-12T22:41:53.512Z,68.74
2023-04-12T22:44:23.267Z,68.42
2023-04-12T22:46:50.812Z,67.79
2023-04-12T22:49:19.842Z,68.33
2023-04-12T22:51:46.367Z,68.16
2023-04-12T22:54:13.084Z,68.04
2023-04-12T22:56:45.249Z,68.01
2023-04-12T22:59:16.750Z,68.58
2023-04-12T23:01:47.451Z,69.35
2023-04-12T23:04:15.680Z,68.98
2023-04-12T23:06:43.456Z,68.78
2023-04-12T23:09:11.511Z,68.81
2023-04-12T23:11:39.978Z,69.28
2023-04-12T23:14:07.801Z,68.76
2023-04-12T23:16:35.272Z,68.92
2023-04-12T23:19:02.069Z,69.29
2023-04-12T23:21:30.162Z,69.42
2023-04-12T23:23:56.912Z,69.99
2023-04-12T23:26:24.628Z,70.46
2023-04-12T23:28:51.452Z,70.18
2023-04-12T23:31:18.216Z,70.67
2023-04-12T23:33:45.311Z,70.61
2023-04-12T23:36:12.633Z,70.81
2023-04-12T23:38:39.082Z,70.34
2023-04-12T23:41:07.304Z,70.16
2023-04-12T23:43:34.584Z,69.71
2023-04-12T23:46:03.046Z,68.98
2023-04-12T23:48:30.941Z,69.14
2023-04-12T23:50:57.733Z,68.89
2023-04-12T23:53:24.355Z,68.45
2023-04-12T23:55:52.033Z,68.08
2023-04-12T23:58:19.443Z,67.95
